createdAt,value
2023-02-19T00:00:06.582Z,100010.13
2023-02-19T00:02:36.187Z,100000.63
2023-02-19T00:05:08.952Z,100005.22
2023-02-19T00:07:35.549Z,99989.34
2023-02-19T00:10:02.148Z,99993.87
2023-02-19T00:12:28.749Z,99991.84
2023-02-19T00:14:57.207Z,99998.19
2023-02-19T00:17:23.811Z,99992.50
2023-02-19T00:19:53.283Z,99999.25
2023-02-19T00:22:19.878Z,99991.56
2023-02-19T00:24:48.971Z,99996.34
2023-02-19T00:27:16.021Z,99993.47
2023-02-19T00:29:42.637Z,99992.72
2023-02-19T00:32:43.708Z,99985.31
2023-02-19T00:35:28.702Z,99990.34
2023-02-19T00:37:55.242Z,99975.19
2023-02-19T00:40:22.767Z,99987.03
2023-02-19T00:42:49.311Z,99976.63
2023-02-19T00:45:15.846Z,99983.59
2023-02-19T00:47:42.402Z,99982.72
2023-02-19T00:50:18.366Z,99978.37
2023-02-19T00:52:44.910Z,99983.50
2023-02-19T00:55:16.828Z,99982.97
2023-02-19T00:57:43.362Z,99983.34
2023-02-19T01:00:10.925Z,99988.84
2023-02-19T01:02:59.530Z,99991.34
2023-02-19T01:05:44.806Z,99992.53
2023-02-19T01:08:11.322Z,99993.44
2023-02-19T01:10:37.866Z,100000.91
2023-02-19T01:13:13.548Z,100001.72
2023-02-19T01:15:40.772Z,99992.97
2023-02-19T01:18:07.583Z,99982.25
2023-02-19T01:20:45.036Z,99983.94
2023-02-19T01:23:13.079Z,99982.09
2023-02-19T01:25:42.878Z,99984.66
2023-02-19T01:28:11.004Z,99985.78
2023-02-19T01:33:58.398Z,99983.41
2023-02-19T01:36:37.794Z,99995.25
2023-02-19T01:39:05.939Z,99987.84
2023-02-19T01:41:36.430Z,99992.00
2023-02-19T01:44:05.234Z,99988.88
2023-02-19T01:46:33.643Z,99994.59
2023-02-19T01:52:01.937Z,99980.81
2023-02-19T01:54:37.746Z,99986.09
2023-02-19T01:57:08.294Z,99990.59
2023-02-19T01:59:35.289Z,99988.75
2023-02-19T02:02:01.991Z,99982.72
2023-02-19T02:04:43.754Z,99987.31
2023-02-19T02:10:37.660Z,99991.38
2023-02-19T02:13:04.374Z,99989.09
2023-02-19T02:15:43.873Z,99979.25
2023-02-19T02:18:36.622Z,99976.00
2023-02-19T02:21:40.777Z,99981.66
2023-02-19T02:24:10.261Z,99982.50
2023-02-19T02:27:10.683Z,99993.19
2023-02-19T02:30:34.708Z,99974.38
2023-02-19T02:33:12.670Z,99978.00
2023-02-19T02:36:03.709Z,99967.81
2023-02-19T02:38:33.311Z,99967.03
2023-02-19T02:41:00.280Z,99967.94
2023-02-19T02:43:26.888Z,99965.72
2023-02-19T02:46:24.338Z,99960.09
2023-02-19T02:49:15.158Z,99957.25
2023-02-19T02:51:47.353Z,99957.44
2023-02-19T02:54:38.765Z,99951.47
2023-02-19T02:57:06.936Z,99949.03
2023-02-19T02:59:37.080Z,99958.13
2023-02-19T03:02:14.941Z,99960.22
2023-02-19T03:05:07.788Z,99965.06
2023-02-19T03:07:40.110Z,99965.34
2023-02-19T03:10:10.258Z,99958.53
2023-02-19T03:12:58.817Z,99962.19
2023-02-19T03:19:31.635Z,99963.56
2023-02-19T03:22:01.250Z,99970.34
2023-02-19T03:24:50.878Z,99973.78
2023-02-19T03:27:21.092Z,99962.69
2023-02-19T03:29:50.234Z,99976.53
2023-02-19T03:32:33.445Z,99980.59
2023-02-19T03:35:07.740Z,99972.78
2023-02-19T03:37:44.130Z,99968.19
2023-02-19T03:40:12.077Z,99958.09
2023-02-19T03:42:41.546Z,99959.44
2023-02-19T03:45:58.548Z,99967.00
2023-02-19T03:48:58.966Z,99962.56
2023-02-19T03:51:39.587Z,99964.88
2023-02-19T03:54:36.385Z,99964.13
2023-02-19T03:57:23.657Z,99968.81
2023-02-19T04:00:04.039Z,99956.91
2023-02-19T04:02:41.315Z,99956.16
2023-02-19T04:05:16.403Z,99960.41
2023-02-19T04:07:47.843Z,99963.94
2023-02-19T04:10:16.583Z,99968.50
2023-02-19T04:12:49.521Z,99970.84
2023-02-19T04:15:41.719Z,99970.50
2023-02-19T04:18:25.402Z,99966.88
2023-02-19T04:20:52.806Z,99964.00
2023-02-19T04:23:24.790Z,99961.31
2023-02-19T04:25:56.868Z,99973.38
2023-02-19T04:28:23.613Z,99971.22
2023-02-19T04:30:50.413Z,99964.56
2023-02-19T04:33:17.053Z,99967.69
2023-02-19T04:35:43.615Z,99974.44
2023-02-19T04:38:10.553Z,99966.47
2023-02-19T04:40:37.073Z,99967.56
2023-02-19T04:43:28.595Z,99968.59
2023-02-19T04:46:07.730Z,99969.72
2023-02-19T04:48:46.734Z,99975.31
2023-02-19T04:51:13.511Z,99971.28
2023-02-19T04:53:40.264Z,99971.06
2023-02-19T04:56:09.237Z,99964.91
2023-02-19T04:58:37.474Z,99978.56
2023-02-19T05:01:04.566Z,99967.66
2023-02-19T05:03:41.721Z,99963.53
2023-02-19T05:06:11.117Z,99961.56
2023-02-19T05:08:37.803Z,99970.03
2023-02-19T05:11:07.142Z,99970.50
2023-02-19T05:13:52.115Z,99972.34
2023-02-19T05:16:49.688Z,99972.28
2023-02-19T05:19:18.384Z,99971.97
2023-02-19T05:21:44.939Z,99964.09
2023-02-19T05:24:11.583Z,99971.72
2023-02-19T05:26:38.140Z,99969.34
2023-02-19T05:29:04.679Z,99957.84
2023-02-19T05:34:20.182Z,99960.94
2023-02-19T05:36:46.813Z,99957.47
2023-02-19T05:39:13.421Z,99943.34
2023-02-19T05:41:40.033Z,99935.97
2023-02-19T05:44:30.802Z,99949.19
2023-02-19T05:47:15.654Z,99957.84
2023-02-19T05:49:42.262Z,99959.16
2023-02-19T05:52:08.782Z,99967.09
2023-02-19T05:54:35.347Z,99967.94
2023-02-19T05:57:17.422Z,99958.72
2023-02-19T05:59:44.002Z,99967.88
2023-02-19T06:02:10.573Z,99962.22
2023-02-19T06:04:37.780Z,99974.16
2023-02-19T06:07:04.355Z,99982.84
2023-02-19T06:09:32.320Z,99974.28
2023-02-19T06:11:58.875Z,99973.91
2023-02-19T06:14:25.531Z,99969.69
2023-02-19T06:16:58.154Z,99962.56
2023-02-19T06:19:52.818Z,99964.28
2023-02-19T06:22:22.893Z,99968.63
2023-02-19T06:24:49.431Z,99965.56
2023-02-19T06:27:16.009Z,99964.50
2023-02-19T06:29:42.636Z,99956.00
2023-02-19T06:32:09.301Z,99954.97
2023-02-19T06:34:36.269Z,99954.03
2023-02-19T06:37:03.214Z,99959.69
2023-02-19T06:39:35.344Z,99948.63
2023-02-19T06:42:01.908Z,99951.50
2023-02-19T06:44:28.439Z,99954.78
2023-02-19T06:46:55.954Z,99954.44
2023-02-19T06:49:22.858Z,99948.88
2023-02-19T06:52:20.474Z,99941.13
2023-02-19T06:55:11.862Z,99945.19
2023-02-19T06:57:57.772Z,99956.44
2023-02-19T07:00:27.012Z,99947.66
2023-02-19T07:11:13.782Z,99952.44
2023-02-19T07:13:40.428Z,99953.75
2023-02-19T07:16:09.915Z,99959.41
2023-02-19T07:18:37.736Z,99966.56
2023-02-19T07:21:29.625Z,99967.47
2023-02-19T07:24:27.901Z,99963.91
2023-02-19T07:27:08.846Z,99963.41
2023-02-19T07:29:35.389Z,99964.19
2023-02-19T07:32:02.107Z,99965.09
2023-02-19T07:34:28.644Z,99965.34
2023-02-19T07:36:55.190Z,99950.34
2023-02-19T07:39:21.755Z,99949.88
2023-02-19T07:41:48.297Z,99942.69
2023-02-19T07:44:16.784Z,99946.75
2023-02-19T07:46:44.335Z,99942.13
2023-02-19T07:49:10.907Z,99931.19
2023-02-19T07:51:39.908Z,99939.09
2023-02-19T07:54:07.724Z,99936.22
2023-02-19T07:56:52.815Z,99944.97
2023-02-19T07:59:47.339Z,99952.44
2023-02-19T08:02:37.293Z,99944.44
2023-02-19T08:05:05.544Z,99959.00
2023-02-19T08:07:36.404Z,99956.88
2023-02-19T08:10:30.543Z,99966.00
2023-02-19T08:13:16.786Z,99968.69
2023-02-19T08:15:43.706Z,99970.56
2023-02-19T08:18:10.875Z,99974.88
2023-02-19T08:20:37.728Z,99976.66
2023-02-19T08:23:04.920Z,99986.31
2023-02-19T08:25:31.998Z,99989.31
2023-02-19T08:28:00.372Z,99981.72
2023-02-19T08:30:28.515Z,99991.22
2023-02-19T08:32:55.918Z,99984.44
2023-02-19T08:35:22.749Z,99988.22
2023-02-19T08:37:49.719Z,99980.03
2023-02-19T08:40:16.476Z,99973.84
2023-02-19T08:42:43.255Z,99976.97
2023-02-19T08:45:10.150Z,99968.38
2023-02-19T08:47:38.177Z,99961.63
2023-02-19T08:50:06.197Z,99966.97
2023-02-19T08:52:33.236Z,99970.69
2023-02-19T08:55:00.261Z,99979.34
2023-02-19T08:57:29.420Z,99972.09
2023-02-19T08:59:59.488Z,99971.09
2023-02-19T09:02:26.176Z,99968.84
2023-02-19T09:04:52.738Z,99970.50
2023-02-19T09:07:20.339Z,99971.53
2023-02-19T09:09:46.891Z,99975.25
2023-02-19T09:12:13.527Z,99973.16
2023-02-19T09:14:40.513Z,99969.53
2023-02-19T09:17:09.062Z,99966.16
2023-02-19T09:19:36.497Z,99976.13
2023-02-19T09:22:04.564Z,99956.34
2023-02-19T09:24:31.967Z,99969.97
2023-02-19T09:26:58.953Z,99967.34
2023-02-19T09:29:27.367Z,99969.66
2023-02-19T09:32:01.117Z,99963.13
2023-02-19T09:34:28.948Z,99957.16
2023-02-19T09:36:56.006Z,99954.66
2023-02-19T09:39:22.657Z,99949.03
2023-02-19T09:41:53.486Z,99963.19
2023-02-19T09:44:42.020Z,99954.47
2023-02-19T09:47:23.402Z,99955.03
2023-02-19T09:49:55.860Z,99954.00
2023-02-19T09:52:27.431Z,99948.84
2023-02-19T09:54:59.415Z,99954.09
2023-02-19T09:57:29.994Z,99948.53
2023-02-19T10:00:09.654Z,99956.41
2023-02-19T10:02:37.409Z,99947.97
2023-02-19T10:05:11.393Z,99937.69
2023-02-19T10:07:41.675Z,99940.59
2023-02-19T10:10:35.716Z,99931.09
2023-02-19T10:13:19.256Z,99931.63
2023-02-19T10:15:50.809Z,99922.53
2023-02-19T10:18:20.356Z,99918.63
2023-02-19T10:20:48.897Z,99915.13
2023-02-19T10:23:16.630Z,99910.97
2023-02-19T10:25:49.334Z,99908.81
2023-02-19T10:28:20.333Z,99901.00
2023-02-19T10:30:53.232Z,99908.31
2023-02-19T10:33:19.879Z,99904.97
2023-02-19T10:35:59.478Z,99897.69
2023-02-19T10:38:39.059Z,99897.06
2023-02-19T10:41:13.664Z,99883.75
2023-02-19T10:43:50.986Z,99883.12
2023-02-19T10:46:28.425Z,99876.53
2023-02-19T10:49:06.657Z,99872.13
2023-02-19T10:51:37.657Z,99852.59
2023-02-19T10:54:14.851Z,99845.38
2023-02-19T10:56:42.161Z,99843.78
2023-02-19T10:59:28.792Z,99841.09
2023-02-19T11:01:56.276Z,99830.69
2023-02-19T11:04:24.180Z,99836.97
2023-02-19T11:06:51.186Z,99836.38
2023-02-19T11:09:36.547Z,99823.78
2023-02-19T11:12:05.111Z,99821.16
2023-02-19T11:14:33.856Z,99802.34
2023-02-19T11:17:04.885Z,99806.78
2023-02-19T11:19:37.074Z,99808.78
2023-02-19T11:22:31.003Z,99799.59
2023-02-19T11:25:07.919Z,99806.06
2023-02-19T11:27:34.762Z,99806.03
2023-02-19T11:30:22.761Z,99803.87
2023-02-19T11:32:49.379Z,99777.72
2023-02-19T11:35:17.928Z,99810.66
2023-02-19T11:38:02.322Z,99785.97
2023-02-19T11:40:57.571Z,99763.38
2023-02-19T11:43:53.422Z,99769.31
2023-02-19T11:46:45.438Z,99752.13
2023-02-19T11:49:48.486Z,99743.91
2023-02-19T11:52:32.936Z,99730.62
2023-02-19T11:55:21.551Z,99729.47
2023-02-19T11:58:14.630Z,99740.22
2023-02-19T12:01:10.981Z,99730.22
2023-02-19T12:04:03.368Z,99732.31
2023-02-19T12:07:05.232Z,99730.28
2023-02-19T12:09:55.982Z,99721.63
2023-02-19T12:12:37.400Z,99708.09
2023-02-19T12:15:26.272Z,99697.19
2023-02-19T12:18:14.847Z,99708.91
2023-02-19T12:20:52.490Z,99712.84
2023-02-19T12:23:30.698Z,99694.09
2023-02-19T12:26:06.296Z,99697.16
2023-02-19T12:29:00.713Z,99706.94
2023-02-19T12:32:04.385Z,99684.28
2023-02-19T12:34:33.877Z,99687.87
2023-02-19T12:37:18.992Z,99674.91
2023-02-19T12:39:54.331Z,99682.50
2023-02-19T12:42:42.565Z,99673.78
2023-02-19T12:45:21.152Z,99680.94
2023-02-19T12:48:01.108Z,99683.00
2023-02-19T12:50:29.579Z,99674.09
2023-02-19T12:53:05.451Z,99702.00
2023-02-19T12:55:43.282Z,99699.88
2023-02-19T12:58:48.213Z,99715.34
2023-02-19T13:01:28.629Z,99703.78
2023-02-19T13:04:23.512Z,99709.47
2023-02-19T13:07:03.878Z,99721.41
2023-02-19T13:09:33.902Z,99714.53
2023-02-19T13:12:26.526Z,99703.37
2023-02-19T13:15:01.217Z,99697.09
2023-02-19T13:18:01.331Z,99685.06
2023-02-19T13:20:41.158Z,99693.50
2023-02-19T13:23:34.847Z,99684.41
2023-02-19T13:26:19.603Z,99676.94
2023-02-19T13:29:07.691Z,99679.50
2023-02-19T13:31:49.601Z,99679.41
2023-02-19T13:34:37.659Z,99678.94
2023-02-19T13:37:04.670Z,99682.19
2023-02-19T13:39:31.573Z,99674.69
2023-02-19T13:42:01.801Z,99676.66
2023-02-19T13:44:31.671Z,99673.44
2023-02-19T13:46:58.918Z,99678.22
2023-02-19T13:49:28.476Z,99705.66
2023-02-19T13:52:02.269Z,99723.84
2023-02-19T13:54:35.936Z,99730.31
2023-02-19T13:57:24.418Z,99757.63
2023-02-19T13:59:55.010Z,99735.00
2023-02-19T14:02:21.536Z,99745.28
2023-02-19T14:04:53.008Z,99753.41
2023-02-19T14:07:21.411Z,99779.34
2023-02-19T14:09:48.516Z,99806.59
2023-02-19T14:12:16.013Z,99816.34
2023-02-19T14:14:53.579Z,99833.75
2023-02-19T14:17:35.275Z,99851.63
2023-02-19T14:20:17.168Z,99854.00
2023-02-19T14:22:47.134Z,99857.97
2023-02-19T14:25:32.052Z,99855.97
2023-02-19T14:28:10.726Z,99828.00
2023-02-19T14:30:58.829Z,99835.38
2023-02-19T14:33:40.129Z,99839.34
2023-02-19T14:36:23.445Z,99842.72
2023-02-19T14:39:02.108Z,99844.66
2023-02-19T14:41:32.548Z,99855.84
2023-02-19T14:44:00.808Z,99856.94
2023-02-19T14:46:45.278Z,99857.81
2023-02-19T14:49:34.406Z,99870.25
2023-02-19T14:52:05.193Z,99863.31
2023-02-19T14:54:40.950Z,99875.78
2023-02-19T14:57:15.894Z,99874.41
2023-02-19T14:59:53.862Z,99877.72
2023-02-19T15:02:21.352Z,99872.19
2023-02-19T15:04:48.341Z,99876.97
2023-02-19T15:07:23.531Z,99866.56
2023-02-19T15:09:57.522Z,99863.81
2023-02-19T15:12:26.890Z,99884.03
2023-02-19T15:14:57.052Z,99903.22
2023-02-19T15:17:30.194Z,99932.16
2023-02-19T15:20:03.055Z,99926.97
2023-02-19T15:22:31.863Z,99926.81
2023-02-19T15:25:02.835Z,99925.91
2023-02-19T15:27:30.036Z,99919.84
2023-02-19T15:29:56.732Z,99923.56
2023-02-19T15:32:26.701Z,99925.84
2023-02-19T15:35:04.180Z,99925.37
2023-02-19T15:37:33.812Z,99923.31
2023-02-19T15:40:05.663Z,99925.63
2023-02-19T15:42:34.939Z,99923.28
2023-02-19T15:45:07.556Z,99918.50
2023-02-19T15:47:36.885Z,99921.72
2023-02-19T15:50:15.243Z,99914.19
2023-02-19T15:52:59.416Z,99907.78
2023-02-19T15:55:41.590Z,99906.25
2023-02-19T15:58:48.349Z,99908.28
2023-02-19T16:01:34.271Z,99897.53
2023-02-19T16:04:01.325Z,99899.00
2023-02-19T16:06:29.000Z,99895.09
2023-02-19T16:09:02.213Z,99896.25
2023-02-19T16:11:34.157Z,99904.03
2023-02-19T16:14:26.869Z,99906.75
2023-02-19T16:17:11.975Z,99914.59
2023-02-19T16:20:00.384Z,99916.31
2023-02-19T16:22:30.711Z,99932.63
2023-02-19T16:25:07.871Z,99935.09
2023-02-19T16:27:39.864Z,99934.34
2023-02-19T16:30:06.845Z,99943.84
2023-02-19T16:32:33.868Z,99940.87
2023-02-19T16:35:00.533Z,99946.31
2023-02-19T16:37:42.278Z,99951.72
2023-02-19T16:40:08.758Z,99945.22
2023-02-19T16:42:56.539Z,99949.28
2023-02-19T16:45:24.912Z,99963.78
2023-02-19T16:47:52.507Z,99969.25
2023-02-19T16:50:22.212Z,99993.69
2023-02-19T16:52:59.667Z,99986.84
2023-02-19T16:55:27.893Z,99989.06
2023-02-19T16:57:56.775Z,99992.09
2023-02-19T17:00:26.040Z,99985.06
2023-02-19T17:02:58.516Z,99998.91
2023-02-19T17:05:27.844Z,99983.97
2023-02-19T17:07:54.559Z,99988.06
2023-02-19T17:10:24.397Z,99993.78
2023-02-19T17:12:52.785Z,99994.34
2023-02-19T17:15:19.385Z,99986.69
2023-02-19T17:17:46.000Z,99987.25
2023-02-19T17:20:15.619Z,99997.06
2023-02-19T17:22:42.913Z,99999.78
2023-02-19T17:25:09.700Z,100012.81
2023-02-19T17:27:36.923Z,100011.47
2023-02-19T17:30:04.009Z,99995.44
2023-02-19T17:32:30.716Z,100003.59
2023-02-19T17:34:57.307Z,100006.81
2023-02-19T17:37:23.875Z,100007.09
2023-02-19T17:39:50.484Z,100015.50
2023-02-19T17:42:17.084Z,100008.50
2023-02-19T17:44:44.101Z,100019.44
2023-02-19T17:47:10.629Z,100010.41
2023-02-19T17:49:37.205Z,100032.19
2023-02-19T17:52:04.632Z,100034.69
2023-02-19T17:54:31.252Z,100043.66
2023-02-19T17:56:57.863Z,100056.22
2023-02-19T17:59:24.420Z,100055.66
2023-02-19T18:01:51.088Z,100072.31
2023-02-19T18:04:17.688Z,100077.78
2023-02-19T18:06:44.624Z,100073.66
2023-02-19T18:09:14.813Z,100065.47
2023-02-19T18:11:45.959Z,100062.47
2023-02-19T18:14:12.528Z,100050.75
2023-02-19T18:16:49.801Z,100064.41
2023-02-19T18:19:17.011Z,100062.75
2023-02-19T18:21:43.584Z,100061.69
2023-02-19T18:24:10.192Z,100073.31
2023-02-19T18:26:36.987Z,100077.47
2023-02-19T18:29:05.357Z,100090.28
2023-02-19T18:31:34.511Z,100086.75
2023-02-19T18:34:01.211Z,100100.12
2023-02-19T18:36:27.749Z,100104.69
2023-02-19T18:38:54.370Z,100112.91
2023-02-19T18:41:21.500Z,100126.84
2023-02-19T18:43:48.955Z,100129.00
2023-02-19T18:46:15.626Z,100131.47
2023-02-19T18:48:42.291Z,100128.44
2023-02-19T18:51:12.434Z,100138.25
2023-02-19T18:53:39.146Z,100148.03
2023-02-19T18:56:08.921Z,100143.62
2023-02-19T18:58:35.757Z,100158.63
2023-02-19T19:01:02.384Z,100163.03
2023-02-19T19:03:32.506Z,100180.19
2023-02-19T19:06:02.174Z,100174.91
2023-02-19T19:08:30.687Z,100196.25
2023-02-19T19:10:57.367Z,100202.09
2023-02-19T19:13:24.223Z,100196.75
2023-02-19T19:15:51.345Z,100205.63
2023-02-19T19:18:18.467Z,100210.31
2023-02-19T19:20:45.048Z,100215.19
2023-02-19T19:23:12.316Z,100216.03
2023-02-19T19:25:41.741Z,100217.94
2023-02-19T19:28:08.372Z,100222.03
2023-02-19T19:30:35.002Z,100215.75
2023-02-19T19:33:03.545Z,100216.84
2023-02-19T19:35:30.186Z,100212.19
2023-02-19T19:37:56.777Z,100210.31
2023-02-19T19:40:23.404Z,100219.44
2023-02-19T19:42:51.996Z,100208.91
2023-02-19T19:45:18.776Z,100205.41
2023-02-19T19:47:45.791Z,100209.72
2023-02-19T19:50:14.445Z,100215.72
2023-02-19T19:52:41.079Z,100209.44
2023-02-19T19:55:10.671Z,100210.75
2023-02-19T19:57:40.358Z,100218.94
2023-02-19T20:00:08.158Z,100220.63
2023-02-19T20:02:34.821Z,100218.53
2023-02-19T20:05:01.425Z,100217.59
2023-02-19T20:07:28.457Z,100232.41
2023-02-19T20:09:58.242Z,100238.00
2023-02-19T20:12:24.791Z,100250.09
2023-02-19T20:14:51.962Z,100248.47
2023-02-19T20:17:18.614Z,100267.44
2023-02-19T20:19:45.919Z,100274.06
2023-02-19T20:22:15.445Z,100271.53
2023-02-19T20:24:43.837Z,100283.94
2023-02-19T20:27:10.624Z,100292.22
2023-02-19T20:29:37.200Z,100307.09
2023-02-19T20:32:04.236Z,100304.03
2023-02-19T20:34:31.346Z,100311.78
2023-02-19T20:36:58.369Z,100311.56
2023-02-19T20:39:28.874Z,100326.88
2023-02-19T20:41:56.616Z,100329.47
2023-02-19T20:44:23.670Z,100322.37
2023-02-19T20:46:58.103Z,100323.06
2023-02-19T20:49:30.113Z,100339.53
2023-02-19T20:52:02.811Z,100340.84
2023-02-19T20:54:32.091Z,100345.50
2023-02-19T20:57:02.027Z,100358.09
2023-02-19T21:02:24.646Z,100371.69
2023-02-19T21:04:51.406Z,100385.31
2023-02-19T21:07:17.945Z,100376.31
2023-02-19T21:09:44.558Z,100365.63
2023-02-19T21:12:11.994Z,100375.31
2023-02-19T21:14:39.087Z,100370.91
2023-02-19T21:18:05.436Z,100370.97
2023-02-19T21:20:50.565Z,100374.97
2023-02-19T21:23:17.144Z,100374.72
2023-02-19T21:25:43.934Z,100371.06
2023-02-19T21:28:10.850Z,100370.38
2023-02-19T21:30:37.502Z,100377.66
2023-02-19T21:33:04.897Z,100366.19
2023-02-19T21:35:34.811Z,100370.56
2023-02-19T21:38:01.425Z,100366.44
2023-02-19T21:40:29.985Z,100373.03
2023-02-19T21:42:56.508Z,100381.91
2023-02-19T21:45:23.264Z,100373.28
2023-02-19T21:47:52.159Z,100378.31
2023-02-19T21:54:15.732Z,100374.09
2023-02-19T21:56:42.395Z,100375.13
2023-02-19T21:59:09.396Z,100378.50
2023-02-19T22:01:42.205Z,100392.00
2023-02-19T22:04:12.643Z,100395.75
2023-02-19T22:06:40.472Z,100390.22
2023-02-19T22:09:08.244Z,100386.25
2023-02-19T22:11:34.917Z,100394.09
2023-02-19T22:14:01.806Z,100383.78
2023-02-19T22:16:28.928Z,100403.69
2023-02-19T22:18:57.917Z,100403.69
2023-02-19T22:21:33.530Z,100405.12
2023-02-19T22:26:56.870Z,100420.06
2023-02-19T22:29:24.404Z,100432.91
2023-02-19T22:31:51.174Z,100446.97
2023-02-19T22:34:17.769Z,100441.75
2023-02-19T22:36:44.775Z,100447.53
2023-02-19T22:39:45.849Z,100450.50
2023-02-19T22:42:45.298Z,100451.53
2023-02-19T22:45:37.996Z,100468.00
2023-02-19T22:48:04.607Z,100477.56
2023-02-19T22:50:31.147Z,100470.00
2023-02-19T22:52:57.715Z,100470.13
2023-02-19T22:55:24.296Z,100479.78
2023-02-19T22:57:50.839Z,100476.84
2023-02-19T23:02:52.651Z,100487.16
2023-02-19T23:05:19.444Z,100482.00
2023-02-19T23:07:46.083Z,100487.63
2023-02-19T23:10:13.347Z,100504.87
2023-02-19T23:12:41.292Z,100497.09
2023-02-19T23:15:54.954Z,100512.53
2023-02-19T23:18:33.850Z,100516.88
2023-02-19T23:21:00.438Z,100527.09
2023-02-19T23:23:27.032Z,100529.34
2023-02-19T23:25:53.636Z,100541.78
2023-02-19T23:28:20.246Z,100532.69
2023-02-19T23:30:46.864Z,100545.34
2023-02-19T23:33:13.500Z,100546.84
2023-02-19T23:35:45.307Z,100550.75
2023-02-19T23:38:11.878Z,100552.44
2023-02-19T23:40:38.492Z,100549.09
2023-02-19T23:43:05.093Z,100556.63
2023-02-19T23:45:50.632Z,100569.66
2023-02-19T23:48:29.562Z,100568.72
2023-02-19T23:50:56.110Z,100558.13
2023-02-19T23:53:22.932Z,100572.25
2023-02-19T23:55:49.581Z,100580.94
2023-02-19T23:58:16.159Z,100581.59
